sensor_id;sensor_type;location;lat;lon;timestamp;pressure;altitude;pressure_sealevel;temperature;humidity
49102;BME280;34913;47.520;19.186;2022-09-09T00:04:35;99589.84;;;17.91;100.00
49102;BME280;34913;47.520;19.186;2022-09-09T00:07:15;99584.13;;;17.94;100.00
49102;BME280;34913;47.520;19.186;2022-09-09T00:09:48;99587.63;;;17.80;100.00
49102;BME280;34913;47.520;19.186;2022-09-09T00:15:05;99575.78;;;17.51;100.00
49102;BME280;34913;47.520;19.186;2022-09-09T00:18:00;99575.66;;;17.45;100.00
49102;BME280;34913;47.520;19.186;2022-09-09T00:20:36;99583.63;;;17.38;100.00
49102;BME280;34913;47.520;19.186;2022-09-09T00:26:04;99594.28;;;17.46;100.00
49102;BME280;34913;47.520;19.186;2022-09-09T00:28:43;99597.78;;;17.47;100.00
49102;BME280;34913;47.520;19.186;2022-09-09T00:31:14;99596.59;;;17.49;100.00
49102;BME280;34913;47.520;19.186;2022-09-09T00:33:41;99597.94;;;17.45;100.00
49102;BME280;34913;47.520;19.186;2022-09-09T00:36:18;99594.56;;;17.28;100.00
49102;BME280;34913;47.520;19.186;2022-09-09T00:38:57;99603.22;;;17.16;100.00
49102;BME280;34913;47.520;19.186;2022-09-09T00:41:39;99601.50;;;17.00;100.00
49102;BME280;34913;47.520;19.186;2022-09-09T00:50:03;99606.13;;;17.06;100.00
49102;BME280;34913;47.520;19.186;2022-09-09T00:52:56;99606.75;;;17.16;100.00
49102;BME280;34913;47.520;19.186;2022-09-09T00:55:36;99612.25;;;17.23;100.00
49102;BME280;34913;47.520;19.186;2022-09-09T00:58:06;99612.94;;;17.17;100.00
49102;BME280;34913;47.520;19.186;2022-09-09T01:00:43;99610.72;;;17.20;100.00
49102;BME280;34913;47.520;19.186;2022-09-09T01:05:39;99606.38;;;17.19;100.00
49102;BME280;34913;47.520;19.186;2022-09-09T01:10:51;99617.28;;;17.18;100.00
49102;BME280;34913;47.520;19.186;2022-09-09T01:13:27;99623.84;;;17.15;100.00
49102;BME280;34913;47.520;19.186;2022-09-09T01:15:57;99631.41;;;17.12;100.00
49102;BME280;34913;47.520;19.186;2022-09-09T01:18:28;99620.69;;;17.12;100.00
49102;BME280;34913;47.520;19.186;2022-09-09T01:21:13;99630.69;;;17.18;100.00
49102;BME280;34913;47.520;19.186;2022-09-09T01:26:44;99637.59;;;17.12;100.00
49102;BME280;34913;47.520;19.186;2022-09-09T01:29:16;99636.94;;;17.10;100.00
49102;BME280;34913;47.520;19.186;2022-09-09T01:31:55;99640.69;;;17.01;100.00
49102;BME280;34913;47.520;19.186;2022-09-09T01:34:23;99638.31;;;17.06;100.00
49102;BME280;34913;47.520;19.186;2022-09-09T01:37:00;99648.13;;;16.91;100.00
49102;BME280;34913;47.520;19.186;2022-09-09T01:39:27;99636.97;;;16.79;100.00
49102;BME280;34913;47.520;19.186;2022-09-09T01:41:54;99638.34;;;16.75;100.00
49102;BME280;34913;47.520;19.186;2022-09-09T01:44:21;99628.75;;;16.81;100.00
49102;BME280;34913;47.520;19.186;2022-09-09T01:46:47;99630.84;;;16.93;100.00
49102;BME280;34913;47.520;19.186;2022-09-09T01:49:12;99623.88;;;16.84;100.00
49102;BME280;34913;47.520;19.186;2022-09-09T01:51:39;99632.25;;;16.81;100.00
49102;BME280;34913;47.520;19.186;2022-09-09T01:54:06;99622.59;;;16.64;100.00
49102;BME280;34913;47.520;19.186;2022-09-09T02:00:00;99647.38;;;16.66;100.00
49102;BME280;34913;47.520;19.186;2022-09-09T02:05:42;99644.81;;;16.81;100.00
49102;BME280;34913;47.520;19.186;2022-09-09T02:08:15;99632.22;;;16.89;100.00
49102;BME280;34913;47.520;19.186;2022-09-09T02:10:56;99637.41;;;16.91;100.00
49102;BME280;34913;47.520;19.186;2022-09-09T02:13:25;99630.53;;;16.88;100.00
49102;BME280;34913;47.520;19.186;2022-09-09T02:18:40;99632.28;;;17.04;100.00
49102;BME280;34913;47.520;19.186;2022-09-09T02:21:09;99633.31;;;17.03;100.00
49102;BME280;34913;47.520;19.186;2022-09-09T02:23:38;99641.09;;;16.90;100.00
49102;BME280;34913;47.520;19.186;2022-09-09T02:26:05;99646.34;;;16.83;100.00
49102;BME280;34913;47.520;19.186;2022-09-09T02:28:34;99646.88;;;16.70;100.00
49102;BME280;34913;47.520;19.186;2022-09-09T02:31:00;99643.03;;;16.65;100.00
49102;BME280;34913;47.520;19.186;2022-09-09T02:33:30;99640.00;;;16.68;100.00
49102;BME280;34913;47.520;19.186;2022-09-09T02:36:00;99644.22;;;16.62;100.00
49102;BME280;34913;47.520;19.186;2022-09-09T02:38:29;99641.56;;;16.54;100.00
49102;BME280;34913;47.520;19.186;2022-09-09T02:40:57;99628.81;;;16.56;100.00
49102;BME280;34913;47.520;19.186;2022-09-09T02:43:23;99644.91;;;16.56;100.00
49102;BME280;34913;47.520;19.186;2022-09-09T02:49:00;99637.72;;;16.48;100.00
49102;BME280;34913;47.520;19.186;2022-09-09T02:56:47;99640.22;;;16.50;100.00
49102;BME280;34913;47.520;19.186;2022-09-09T02:59:15;99636.88;;;16.56;100.00
49102;BME280;34913;47.520;19.186;2022-09-09T03:01:41;99639.22;;;16.59;100.00
49102;BME280;34913;47.520;19.186;2022-09-09T03:04:06;99644.22;;;16.62;100.00
49102;BME280;34913;47.520;19.186;2022-09-09T03:06:32;99651.41;;;16.62;100.00
49102;BME280;34913;47.520;19.186;2022-09-09T03:08:57;99645.06;;;16.63;100.00
49102;BME280;34913;47.520;19.186;2022-09-09T03:11:26;99633.69;;;16.61;100.00
49102;BME280;34913;47.520;19.186;2022-09-09T03:13:53;99648.56;;;16.63;100.00
49102;BME280;34913;47.520;19.186;2022-09-09T03:16:19;99650.44;;;16.55;100.00
49102;BME280;34913;47.520;19.186;2022-09-09T03:18:46;99654.63;;;16.49;100.00
49102;BME280;34913;47.520;19.186;2022-09-09T03:21:12;99654.31;;;16.52;100.00
49102;BME280;34913;47.520;19.186;2022-09-09T03:23:37;99658.84;;;16.52;100.00
49102;BME280;34913;47.520;19.186;2022-09-09T03:26:02;99658.69;;;16.45;100.00
49102;BME280;34913;47.520;19.186;2022-09-09T03:28:28;99655.34;;;16.35;100.00
49102;BME280;34913;47.520;19.186;2022-09-09T03:31:04;99647.69;;;16.24;100.00
49102;BME280;34913;47.520;19.186;2022-09-09T03:33:30;99644.69;;;16.18;100.00
49102;BME280;34913;47.520;19.186;2022-09-09T03:35:56;99644.03;;;16.16;100.00
49102;BME280;34913;47.520;19.186;2022-09-09T03:38:25;99644.19;;;16.23;100.00
49102;BME280;34913;47.520;19.186;2022-09-09T03:40:52;99645.03;;;16.15;100.00
49102;BME280;34913;47.520;19.186;2022-09-09T03:43:21;99647.91;;;16.14;100.00
49102;BME280;34913;47.520;19.186;2022-09-09T03:45:47;99645.41;;;16.12;100.00
49102;BME280;34913;47.520;19.186;2022-09-09T03:48:14;99648.56;;;16.16;100.00
49102;BME280;34913;47.520;19.186;2022-09-09T03:50:48;99658.09;;;16.10;100.00
49102;BME280;34913;47.520;19.186;2022-09-09T03:53:15;99653.94;;;16.08;100.00
49102;BME280;34913;47.520;19.186;2022-09-09T03:55:49;99660.28;;;16.07;100.00
49102;BME280;34913;47.520;19.186;2022-09-09T03:58:16;99663.13;;;16.13;100.00
49102;BME280;34913;47.520;19.186;2022-09-09T04:00:52;99665.63;;;16.15;100.00
49102;BME280;34913;47.520;19.186;2022-09-09T04:03:18;99657.94;;;16.12;100.00
49102;BME280;34913;47.520;19.186;2022-09-09T04:05:44;99672.31;;;16.11;100.00
49102;BME280;34913;47.520;19.186;2022-09-09T04:08:09;99671.66;;;16.09;100.00
49102;BME280;34913;47.520;19.186;2022-09-09T04:10:36;99671.84;;;15.99;100.00
49102;BME280;34913;47.520;19.186;2022-09-09T04:13:03;99664.00;;;15.98;100.00
49102;BME280;34913;47.520;19.186;2022-09-09T04:15:30;99668.34;;;15.99;100.00
49102;BME280;34913;47.520;19.186;2022-09-09T04:17:56;99667.16;;;16.01;100.00
49102;BME280;34913;47.520;19.186;2022-09-09T04:20:22;99668.31;;;16.07;100.00
49102;BME280;34913;47.520;19.186;2022-09-09T04:22:47;99677.34;;;16.14;100.00
49102;BME280;34913;47.520;19.186;2022-09-09T04:25:13;99673.34;;;16.02;100.00
49102;BME280;34913;47.520;19.186;2022-09-09T04:27:39;99672.69;;;15.91;100.00
49102;BME280;34913;47.520;19.186;2022-09-09T04:30:05;99677.88;;;15.85;100.00
49102;BME280;34913;47.520;19.186;2022-09-09T04:32:35;99680.06;;;15.81;100.00
49102;BME280;34913;47.520;19.186;2022-09-09T04:35:02;99675.19;;;15.85;100.00
49102;BME280;34913;47.520;19.186;2022-09-09T04:37:28;99678.38;;;15.97;100.00
49102;BME280;34913;47.520;19.186;2022-09-09T04:39:53;99678.03;;;16.08;100.00
49102;BME280;34913;47.520;19.186;2022-09-09T04:42:19;99674.50;;;16.15;100.00
49102;BME280;34913;47.520;19.186;2022-09-09T04:44:44;99673.63;;;16.23;100.00
49102;BME280;34913;47.520;19.186;2022-09-09T04:47:10;99674.13;;;16.27;100.00
49102;BME280;34913;47.520;19.186;2022-09-09T04:49:36;99672.59;;;16.32;100.00
49102;BME280;34913;47.520;19.186;2022-09-09T04:52:02;99669.59;;;16.35;100.00
49102;BME280;34913;47.520;19.186;2022-09-09T04:54:28;99662.56;;;16.34;100.00
49102;BME280;34913;47.520;19.186;2022-09-09T04:56:54;99663.56;;;16.33;100.00
49102;BME280;34913;47.520;19.186;2022-09-09T04:59:20;99657.56;;;16.31;100.00
49102;BME280;34913;47.520;19.186;2022-09-09T05:01:47;99658.88;;;16.27;100.00
49102;BME280;34913;47.520;19.186;2022-09-09T05:04:12;99657.94;;;16.20;100.00
49102;BME280;34913;47.520;19.186;2022-09-09T05:06:39;99662.78;;;16.16;100.00
49102;BME280;34913;47.520;19.186;2022-09-09T05:09:05;99657.44;;;16.08;100.00
49102;BME280;34913;47.520;19.186;2022-09-09T05:11:32;99668.50;;;16.05;100.00
49102;BME280;34913;47.520;19.186;2022-09-09T05:13:58;99672.69;;;16.00;100.00
49102;BME280;34913;47.520;19.186;2022-09-09T05:16:24;99681.38;;;16.02;100.00
49102;BME280;34913;47.520;19.186;2022-09-09T05:18:50;99685.41;;;16.06;100.00
49102;BME280;34913;47.520;19.186;2022-09-09T05:21:20;99690.56;;;16.07;100.00
49102;BME280;34913;47.520;19.186;2022-09-09T05:23:47;99682.53;;;16.07;100.00
49102;BME280;34913;47.520;19.186;2022-09-09T05:26:17;99677.66;;;16.11;100.00
49102;BME280;34913;47.520;19.186;2022-09-09T05:28:43;99680.69;;;16.16;100.00
49102;BME280;34913;47.520;19.186;2022-09-09T05:31:10;99687.38;;;16.20;100.00
49102;BME280;34913;47.520;19.186;2022-09-09T05:33:39;99689.53;;;16.25;100.00
49102;BME280;34913;47.520;19.186;2022-09-09T05:36:11;99691.88;;;16.28;100.00
49102;BME280;34913;47.520;19.186;2022-09-09T05:38:39;99685.69;;;16.35;100.00
49102;BME280;34913;47.520;19.186;2022-09-09T05:41:05;99690.66;;;16.46;100.00
49102;BME280;34913;47.520;19.186;2022-09-09T05:43:30;99693.75;;;16.66;100.00
49102;BME280;34913;47.520;19.186;2022-09-09T05:46:04;99694.78;;;16.73;100.00
49102;BME280;34913;47.520;19.186;2022-09-09T05:48:31;99687.22;;;16.77;100.00
49102;BME280;34913;47.520;19.186;2022-09-09T05:50:58;99684.34;;;16.87;100.00
49102;BME280;34913;47.520;19.186;2022-09-09T05:53:25;99688.00;;;16.94;100.00
49102;BME280;34913;47.520;19.186;2022-09-09T05:56:19;99688.25;;;17.07;100.00
49102;BME280;34913;47.520;19.186;2022-09-09T05:58:44;99697.34;;;17.29;100.00
49102;BME280;34913;47.520;19.186;2022-09-09T06:01:11;99696.63;;;17.58;100.00
49102;BME280;34913;47.520;19.186;2022-09-09T06:03:39;99694.09;;;17.88;99.38
49102;BME280;34913;47.520;19.186;2022-09-09T06:06:07;99696.63;;;18.04;98.34
49102;BME280;34913;47.520;19.186;2022-09-09T06:08:34;99691.09;;;18.20;93.76
49102;BME280;34913;47.520;19.186;2022-09-09T06:13:30;99705.41;;;18.50;95.26
49102;BME280;34913;47.520;19.186;2022-09-09T06:15:55;99694.31;;;18.68;93.32
49102;BME280;34913;47.520;19.186;2022-09-09T06:18:21;99691.50;;;18.91;89.84
49102;BME280;34913;47.520;19.186;2022-09-09T06:20:57;99691.63;;;19.40;87.49
49102;BME280;34913;47.520;19.186;2022-09-09T06:23:23;99691.75;;;19.68;84.98
49102;BME280;34913;47.520;19.186;2022-09-09T06:25:49;99690.19;;;20.02;85.18
49102;BME280;34913;47.520;19.186;2022-09-09T06:28:15;99684.59;;;19.82;81.28
49102;BME280;34913;47.520;19.186;2022-09-09T06:30:41;99693.50;;;19.76;84.00
49102;BME280;34913;47.520;19.186;2022-09-09T06:33:06;99694.06;;;19.71;82.51
49102;BME280;34913;47.520;19.186;2022-09-09T06:35:32;99703.16;;;19.70;83.84
49102;BME280;34913;47.520;19.186;2022-09-09T06:37:57;99705.66;;;19.93;82.94
49102;BME280;34913;47.520;19.186;2022-09-09T06:40:24;99699.34;;;20.07;83.59
49102;BME280;34913;47.520;19.186;2022-09-09T06:42:49;99694.38;;;20.39;82.27
49102;BME280;34913;47.520;19.186;2022-09-09T06:45:15;99692.28;;;20.62;80.32
49102;BME280;34913;47.520;19.186;2022-09-09T06:47:40;99696.34;;;20.86;79.64
49102;BME280;34913;47.520;19.186;2022-09-09T06:50:07;99695.75;;;20.98;78.24
49102;BME280;34913;47.520;19.186;2022-09-09T06:52:33;99700.56;;;21.09;75.54
49102;BME280;34913;47.520;19.186;2022-09-09T06:54:58;99696.78;;;20.97;78.87
49102;BME280;34913;47.520;19.186;2022-09-09T06:57:24;99691.13;;;20.85;79.66
49102;BME280;34913;47.520;19.186;2022-09-09T06:59:49;99697.75;;;20.82;78.35
49102;BME280;34913;47.520;19.186;2022-09-09T07:02:15;99695.41;;;20.66;78.90
49102;BME280;34913;47.520;19.186;2022-09-09T07:04:41;99701.41;;;20.68;77.75
49102;BME280;34913;47.520;19.186;2022-09-09T07:07:06;99695.31;;;20.87;80.48
49102;BME280;34913;47.520;19.186;2022-09-09T07:09:33;99698.47;;;21.04;77.72
49102;BME280;34913;47.520;19.186;2022-09-09T07:11:59;99701.25;;;21.17;78.04
49102;BME280;34913;47.520;19.186;2022-09-09T07:14:24;99705.81;;;21.24;76.55
49102;BME280;34913;47.520;19.186;2022-09-09T07:16:50;99714.72;;;21.11;76.81
49102;BME280;34913;47.520;19.186;2022-09-09T07:19:16;99718.84;;;20.66;78.34
49102;BME280;34913;47.520;19.186;2022-09-09T07:21:42;99722.94;;;20.05;78.36
49102;BME280;34913;47.520;19.186;2022-09-09T07:24:08;99729.69;;;19.73;81.48
49102;BME280;34913;47.520;19.186;2022-09-09T07:26:35;99720.50;;;19.46;85.54
49102;BME280;34913;47.520;19.186;2022-09-09T07:29:02;99724.56;;;19.57;84.54
49102;BME280;34913;47.520;19.186;2022-09-09T07:31:30;99728.84;;;19.94;80.48
49102;BME280;34913;47.520;19.186;2022-09-09T07:33:57;99728.16;;;20.35;78.61
49102;BME280;34913;47.520;19.186;2022-09-09T07:36:26;99721.84;;;20.84;77.29
49102;BME280;34913;47.520;19.186;2022-09-09T07:38:54;99728.88;;;21.26;74.71
49102;BME280;34913;47.520;19.186;2022-09-09T07:41:40;99723.66;;;21.18;74.23
49102;BME280;34913;47.520;19.186;2022-09-09T07:44:12;99736.00;;;21.34;70.82
49102;BME280;34913;47.520;19.186;2022-09-09T07:46:37;99736.25;;;21.52;70.93
49102;BME280;34913;47.520;19.186;2022-09-09T07:49:07;99740.91;;;22.05;69.86
49102;BME280;34913;47.520;19.186;2022-09-09T07:51:36;99735.09;;;22.34;66.74
49102;BME280;34913;47.520;19.186;2022-09-09T07:54:05;99737.56;;;22.62;66.94
49102;BME280;34913;47.520;19.186;2022-09-09T07:56:31;99734.78;;;23.02;66.31
49102;BME280;34913;47.520;19.186;2022-09-09T07:58:57;99737.59;;;23.20;64.80
49102;BME280;34913;47.520;19.186;2022-09-09T08:01:30;99744.72;;;23.15;62.69
49102;BME280;34913;47.520;19.186;2022-09-09T08:06:32;99729.84;;;23.75;61.49
49102;BME280;34913;47.520;19.186;2022-09-09T08:09:01;99736.38;;;23.92;60.85
49102;BME280;34913;47.520;19.186;2022-09-09T08:11:27;99738.72;;;24.14;59.77
49102;BME280;34913;47.520;19.186;2022-09-09T08:13:54;99740.19;;;24.41;58.73
49102;BME280;34913;47.520;19.186;2022-09-09T08:16:22;99739.81;;;24.31;60.56
49102;BME280;34913;47.520;19.186;2022-09-09T08:18:51;99734.84;;;24.28;58.58
49102;BME280;34913;47.520;19.186;2022-09-09T08:21:22;99742.50;;;24.38;57.70
49102;BME280;34913;47.520;19.186;2022-09-09T08:23:50;99737.78;;;24.27;58.63
49102;BME280;34913;47.520;19.186;2022-09-09T08:26:38;99733.84;;;24.47;57.13
49102;BME280;34913;47.520;19.186;2022-09-09T08:29:05;99729.97;;;24.62;55.69
49102;BME280;34913;47.520;19.186;2022-09-09T08:31:41;99738.66;;;24.20;56.01
49102;BME280;34913;47.520;19.186;2022-09-09T08:34:08;99735.16;;;23.88;60.42
49102;BME280;34913;47.520;19.186;2022-09-09T08:36:37;99741.16;;;23.97;58.80
49102;BME280;34913;47.520;19.186;2022-09-09T08:39:05;99731.91;;;23.80;57.60
49102;BME280;34913;47.520;19.186;2022-09-09T08:50:12;99730.72;;;24.26;56.78
49102;BME280;34913;47.520;19.186;2022-09-09T08:52:53;99736.28;;;24.31;57.03
49102;BME280;34913;47.520;19.186;2022-09-09T08:55:37;99735.88;;;24.34;58.58
49102;BME280;34913;47.520;19.186;2022-09-09T08:58:18;99737.09;;;24.38;56.76
49102;BME280;34913;47.520;19.186;2022-09-09T09:04:00;99733.72;;;24.79;56.05
49102;BME280;34913;47.520;19.186;2022-09-09T09:12:16;99737.59;;;24.90;54.43
49102;BME280;34913;47.520;19.186;2022-09-09T09:14:46;99728.31;;;25.16;53.63
49102;BME280;34913;47.520;19.186;2022-09-09T09:19:41;99734.88;;;25.26;51.83
49102;BME280;34913;47.520;19.186;2022-09-09T09:22:36;99738.22;;;25.28;50.38
49102;BME280;34913;47.520;19.186;2022-09-09T09:25:10;99735.75;;;25.39;49.91
49102;BME280;34913;47.520;19.186;2022-09-09T09:28:00;99729.75;;;25.37;50.76
49102;BME280;34913;47.520;19.186;2022-09-09T09:30:29;99722.75;;;25.29;51.81
49102;BME280;34913;47.520;19.186;2022-09-09T09:33:02;99722.03;;;25.64;51.01
49102;BME280;34913;47.520;19.186;2022-09-09T09:35:31;99721.06;;;25.88;49.72
49102;BME280;34913;47.520;19.186;2022-09-09T09:37:56;99719.31;;;25.94;48.09
49102;BME280;34913;47.520;19.186;2022-09-09T09:40:23;99707.38;;;26.06;48.85
49102;BME280;34913;47.520;19.186;2022-09-09T09:42:54;99708.09;;;26.13;46.85
49102;BME280;34913;47.520;19.186;2022-09-09T09:45:31;99714.13;;;26.04;47.01
49102;BME280;34913;47.520;19.186;2022-09-09T09:48:02;99718.94;;;25.90;47.19
49102;BME280;34913;47.520;19.186;2022-09-09T09:50:28;99713.84;;;25.82;47.57
49102;BME280;34913;47.520;19.186;2022-09-09T09:52:56;99714.31;;;25.91;47.82
49102;BME280;34913;47.520;19.186;2022-09-09T09:55:23;99716.97;;;26.09;47.43
49102;BME280;34913;47.520;19.186;2022-09-09T09:57:49;99710.34;;;26.16;48.19
49102;BME280;34913;47.520;19.186;2022-09-09T10:00:18;99708.81;;;26.32;46.53
49102;BME280;34913;47.520;19.186;2022-09-09T10:02:45;99715.47;;;26.48;46.51
49102;BME280;34913;47.520;19.186;2022-09-09T10:05:30;99706.56;;;26.17;46.34
49102;BME280;34913;47.520;19.186;2022-09-09T10:08:09;99717.28;;;25.89;46.26
49102;BME280;34913;47.520;19.186;2022-09-09T10:13:31;99717.22;;;26.19;46.81
49102;BME280;34913;47.520;19.186;2022-09-09T10:24:31;99701.47;;;26.80;45.57
49102;BME280;34913;47.520;19.186;2022-09-09T10:29:47;99704.03;;;26.98;44.45
49102;BME280;34913;47.520;19.186;2022-09-09T10:32:44;99698.81;;;27.08;47.69
49102;BME280;34913;47.520;19.186;2022-09-09T10:38:17;99695.50;;;27.06;47.73
49102;BME280;34913;47.520;19.186;2022-09-09T10:43:39;99688.72;;;27.20;46.31
49102;BME280;34913;47.520;19.186;2022-09-09T10:49:27;99693.91;;;27.22;45.43
49102;BME280;34913;47.520;19.186;2022-09-09T10:52:14;99691.00;;;27.12;42.43
49102;BME280;34913;47.520;19.186;2022-09-09T10:57:33;99691.34;;;27.44;44.43
49102;BME280;34913;47.520;19.186;2022-09-09T11:00:10;99690.41;;;27.38;42.65
49102;BME280;34913;47.520;19.186;2022-09-09T11:02:40;99690.56;;;27.32;44.97
49102;BME280;34913;47.520;19.186;2022-09-09T11:07:44;99689.34;;;27.39;43.92
49102;BME280;34913;47.520;19.186;2022-09-09T11:10:26;99697.66;;;27.33;42.16
49102;BME280;34913;47.520;19.186;2022-09-09T11:13:01;99694.50;;;27.24;43.42
49102;BME280;34913;47.520;19.186;2022-09-09T11:15:39;99700.03;;;26.89;42.90
49102;BME280;34913;47.520;19.186;2022-09-09T11:18:06;99689.19;;;26.65;41.88
49102;BME280;34913;47.520;19.186;2022-09-09T11:20:36;99695.91;;;26.86;41.98
49102;BME280;34913;47.520;19.186;2022-09-09T11:23:13;99682.47;;;26.96;41.83
49102;BME280;34913;47.520;19.186;2022-09-09T11:25:49;99682.69;;;27.18;42.03
49102;BME280;34913;47.520;19.186;2022-09-09T11:44:37;99686.22;;;27.76;42.46
49102;BME280;34913;47.520;19.186;2022-09-09T11:47:03;99673.31;;;27.71;41.71
49102;BME280;34913;47.520;19.186;2022-09-09T11:49:39;99669.44;;;27.55;40.22
49102;BME280;34913;47.520;19.186;2022-09-09T11:52:46;99658.81;;;27.54;41.41
49102;BME280;34913;47.520;19.186;2022-09-09T11:55:29;99660.84;;;27.47;39.39
49102;BME280;34913;47.520;19.186;2022-09-09T11:57:59;99673.72;;;27.35;40.64
49102;BME280;34913;47.520;19.186;2022-09-09T12:00:38;99668.16;;;27.30;40.24
49102;BME280;34913;47.520;19.186;2022-09-09T12:03:06;99664.22;;;27.09;39.86
49102;BME280;34913;47.520;19.186;2022-09-09T12:05:52;99666.78;;;27.27;40.00
49102;BME280;34913;47.520;19.186;2022-09-09T12:08:26;99663.78;;;27.29;38.17
49102;BME280;34913;47.520;19.186;2022-09-09T12:10:56;99662.41;;;27.26;39.05
49102;BME280;34913;47.520;19.186;2022-09-09T12:13:24;99658.78;;;27.09;41.21
49102;BME280;34913;47.520;19.186;2022-09-09T12:15:52;99662.06;;;26.70;40.15
49102;BME280;34913;47.520;19.186;2022-09-09T12:18:32;99654.56;;;26.78;41.46
49102;BME280;34913;47.520;19.186;2022-09-09T12:23:35;99664.81;;;26.59;44.63
49102;BME280;34913;47.520;19.186;2022-09-09T12:31:26;99665.38;;;26.61;42.57
49102;BME280;34913;47.520;19.186;2022-09-09T12:34:06;99653.34;;;26.45;43.73
49102;BME280;34913;47.520;19.186;2022-09-09T12:36:35;99638.41;;;26.36;43.20
49102;BME280;34913;47.520;19.186;2022-09-09T12:39:24;99638.44;;;26.12;43.94
49102;BME280;34913;47.520;19.186;2022-09-09T12:41:54;99629.56;;;26.05;44.95
49102;BME280;34913;47.520;19.186;2022-09-09T12:44:22;99629.81;;;26.04;45.55
49102;BME280;34913;47.520;19.186;2022-09-09T12:46:49;99624.47;;;25.97;45.51
49102;BME280;34913;47.520;19.186;2022-09-09T12:49:38;99637.63;;;26.24;44.85
49102;BME280;34913;47.520;19.186;2022-09-09T12:52:08;99618.41;;;26.54;44.60
49102;BME280;34913;47.520;19.186;2022-09-09T12:54:45;99629.97;;;26.73;42.89
49102;BME280;34913;47.520;19.186;2022-09-09T12:57:13;99620.22;;;26.88;44.16
49102;BME280;34913;47.520;19.186;2022-09-09T12:59:41;99616.19;;;26.91;42.42
49102;BME280;34913;47.520;19.186;2022-09-09T13:02:36;99620.56;;;26.92;42.65
49102;BME280;34913;47.520;19.186;2022-09-09T13:05:37;99621.50;;;26.86;41.07
49102;BME280;34913;47.520;19.186;2022-09-09T13:08:10;99614.19;;;26.86;41.37
49102;BME280;34913;47.520;19.186;2022-09-09T13:10:44;99606.84;;;26.87;40.62
49102;BME280;34913;47.520;19.186;2022-09-09T13:13:22;99596.19;;;26.85;40.21
49102;BME280;34913;47.520;19.186;2022-09-09T13:15:54;99587.88;;;26.92;40.96
49102;BME280;34913;47.520;19.186;2022-09-09T13:18:26;99588.56;;;26.99;42.16
49102;BME280;34913;47.520;19.186;2022-09-09T13:20:53;99586.38;;;26.84;41.58
49102;BME280;34913;47.520;19.186;2022-09-09T13:23:20;99592.44;;;26.75;41.75
49102;BME280;34913;47.520;19.186;2022-09-09T13:25:59;99593.09;;;26.53;41.55
49102;BME280;34913;47.520;19.186;2022-09-09T13:28:28;99585.31;;;26.45;40.42
49102;BME280;34913;47.520;19.186;2022-09-09T13:31:03;99571.81;;;26.38;40.85
49102;BME280;34913;47.520;19.186;2022-09-09T13:33:38;99576.31;;;26.33;42.84
49102;BME280;34913;47.520;19.186;2022-09-09T13:36:08;99580.25;;;26.25;42.51
49102;BME280;34913;47.520;19.186;2022-09-09T13:38:55;99578.22;;;26.21;40.56
49102;BME280;34913;47.520;19.186;2022-09-09T13:41:34;99579.78;;;26.05;40.17
49102;BME280;34913;47.520;19.186;2022-09-09T13:44:01;99572.09;;;26.02;42.09
49102;BME280;34913;47.520;19.186;2022-09-09T13:46:37;99586.16;;;26.10;42.91
49102;BME280;34913;47.520;19.186;2022-09-09T13:54:09;99572.22;;;25.95;45.42
49102;BME280;34913;47.520;19.186;2022-09-09T13:56:37;99571.72;;;25.98;44.74
49102;BME280;34913;47.520;19.186;2022-09-09T13:59:05;99567.25;;;26.04;43.37
49102;BME280;34913;47.520;19.186;2022-09-09T14:01:31;99564.56;;;25.92;42.94
49102;BME280;34913;47.520;19.186;2022-09-09T14:03:58;99565.13;;;25.94;44.17
49102;BME280;34913;47.520;19.186;2022-09-09T14:06:24;99564.56;;;25.92;46.64
49102;BME280;34913;47.520;19.186;2022-09-09T14:08:50;99554.88;;;25.84;44.63
49102;BME280;34913;47.520;19.186;2022-09-09T14:11:17;99558.66;;;25.83;45.49
49102;BME280;34913;47.520;19.186;2022-09-09T14:13:42;99552.47;;;25.88;46.55
49102;BME280;34913;47.520;19.186;2022-09-09T14:16:07;99550.13;;;25.80;46.24
49102;BME280;34913;47.520;19.186;2022-09-09T14:18:33;99551.13;;;25.67;45.92
49102;BME280;34913;47.520;19.186;2022-09-09T14:20:59;99543.34;;;25.59;47.50
49102;BME280;34913;47.520;19.186;2022-09-09T14:23:25;99539.44;;;25.43;46.88
49102;BME280;34913;47.520;19.186;2022-09-09T14:25:51;99547.72;;;25.37;47.21
49102;BME280;34913;47.520;19.186;2022-09-09T14:28:17;99549.81;;;25.34;46.93
49102;BME280;34913;47.520;19.186;2022-09-09T14:30:43;99546.50;;;25.32;46.24
49102;BME280;34913;47.520;19.186;2022-09-09T14:33:12;99552.53;;;25.34;47.07
49102;BME280;34913;47.520;19.186;2022-09-09T14:35:38;99556.91;;;25.36;48.41
49102;BME280;34913;47.520;19.186;2022-09-09T14:38:04;99557.75;;;25.36;47.98
49102;BME280;34913;47.520;19.186;2022-09-09T14:40:30;99554.78;;;25.38;47.97
49102;BME280;34913;47.520;19.186;2022-09-09T14:42:56;99555.13;;;25.29;48.17
49102;BME280;34913;47.520;19.186;2022-09-09T14:45:23;99549.47;;;25.31;47.31
49102;BME280;34913;47.520;19.186;2022-09-09T14:47:50;99544.72;;;25.26;47.16
49102;BME280;34913;47.520;19.186;2022-09-09T14:50:16;99542.09;;;25.20;46.44
49102;BME280;34913;47.520;19.186;2022-09-09T14:52:42;99539.88;;;25.17;46.68
49102;BME280;34913;47.520;19.186;2022-09-09T14:55:07;99543.06;;;25.14;46.86
49102;BME280;34913;47.520;19.186;2022-09-09T14:57:33;99542.91;;;25.09;46.84
49102;BME280;34913;47.520;19.186;2022-09-09T15:00:00;99551.06;;;25.09;48.60
49102;BME280;34913;47.520;19.186;2022-09-09T15:02:26;99545.63;;;25.09;49.13
49102;BME280;34913;47.520;19.186;2022-09-09T15:04:52;99548.09;;;25.10;48.15